sensor_id;sensor_type;location;lat;lon;timestamp;temperature;humidity
31369;DHT22;18004;48.416;10.066;2024-03-17T00:00:22;7.90;99.90
31369;DHT22;18004;48.416;10.066;2024-03-17T00:02:48;7.80;99.90
31369;DHT22;18004;48.416;10.066;2024-03-17T00:05:15;7.90;99.90
31369;DHT22;18004;48.416;10.066;2024-03-17T00:07:41;7.90;99.90
31369;DHT22;18004;48.416;10.066;2024-03-17T00:10:07;7.90;99.90
31369;DHT22;18004;48.416;10.066;2024-03-17T00:12:34;7.80;99.90
31369;DHT22;18004;48.416;10.066;2024-03-17T00:15:00;7.70;99.90
31369;DHT22;18004;48.416;10.066;2024-03-17T00:17:26;7.70;99.90
31369;DHT22;18004;48.416;10.066;2024-03-17T00:19:51;7.70;99.90
31369;DHT22;18004;48.416;10.066;2024-03-17T00:22:18;7.70;99.90
31369;DHT22;18004;48.416;10.066;2024-03-17T00:24:46;7.70;99.90
31369;DHT22;18004;48.416;10.066;2024-03-17T00:27:11;7.70;99.90
31369;DHT22;18004;48.416;10.066;2024-03-17T00:29:38;7.70;99.90
31369;DHT22;18004;48.416;10.066;2024-03-17T00:32:04;7.70;99.90
31369;DHT22;18004;48.416;10.066;2024-03-17T00:34:30;7.70;99.90
31369;DHT22;18004;48.416;10.066;2024-03-17T00:36:56;7.70;99.90
31369;DHT22;18004;48.416;10.066;2024-03-17T00:39:22;7.70;99.90
31369;DHT22;18004;48.416;10.066;2024-03-17T00:41:48;7.60;99.90
31369;DHT22;18004;48.416;10.066;2024-03-17T00:44:14;7.60;99.90
31369;DHT22;18004;48.416;10.066;2024-03-17T00:46:41;7.60;99.90
31369;DHT22;18004;48.416;10.066;2024-03-17T00:49:09;7.60;99.90
31369;DHT22;18004;48.416;10.066;2024-03-17T00:51:35;7.40;99.90
31369;DHT22;18004;48.416;10.066;2024-03-17T00:54:01;7.30;99.90
31369;DHT22;18004;48.416;10.066;2024-03-17T00:56:27;7.40;99.90
31369;DHT22;18004;48.416;10.066;2024-03-17T00:58:53;7.40;99.90
31369;DHT22;18004;48.416;10.066;2024-03-17T01:01:19;7.40;99.90
31369;DHT22;18004;48.416;10.066;2024-03-17T01:03:46;7.50;99.90
31369;DHT22;18004;48.416;10.066;2024-03-17T01:06:11;7.50;99.90
31369;DHT22;18004;48.416;10.066;2024-03-17T01:08:37;7.50;99.90
31369;DHT22;18004;48.416;10.066;2024-03-17T01:11:03;7.60;99.90
31369;DHT22;18004;48.416;10.066;2024-03-17T01:13:29;7.60;99.90
31369;DHT22;18004;48.416;10.066;2024-03-17T01:15:55;7.60;99.90
31369;DHT22;18004;48.416;10.066;2024-03-17T01:18:21;7.60;99.90
31369;DHT22;18004;48.416;10.066;2024-03-17T01:20:47;7.60;99.90
31369;DHT22;18004;48.416;10.066;2024-03-17T01:23:13;7.50;99.90
31369;DHT22;18004;48.416;10.066;2024-03-17T01:25:39;7.20;99.90
31369;DHT22;18004;48.416;10.066;2024-03-17T01:28:05;7.10;99.90
31369;DHT22;18004;48.416;10.066;2024-03-17T01:30:31;7.10;99.90
31369;DHT22;18004;48.416;10.066;2024-03-17T01:32:58;7.00;99.90
31369;DHT22;18004;48.416;10.066;2024-03-17T01:35:25;6.80;99.90
31369;DHT22;18004;48.416;10.066;2024-03-17T01:37:51;6.80;99.90
31369;DHT22;18004;48.416;10.066;2024-03-17T01:40:17;6.90;99.90
31369;DHT22;18004;48.416;10.066;2024-03-17T01:42:43;6.80;99.90
31369;DHT22;18004;48.416;10.066;2024-03-17T01:47:46;6.70;99.90
31369;DHT22;18004;48.416;10.066;2024-03-17T01:50:12;6.70;99.90
31369;DHT22;18004;48.416;10.066;2024-03-17T01:52:39;6.80;99.90
31369;DHT22;18004;48.416;10.066;2024-03-17T01:55:05;6.90;99.90
31369;DHT22;18004;48.416;10.066;2024-03-17T01:57:31;6.90;99.90
31369;DHT22;18004;48.416;10.066;2024-03-17T01:59:58;6.90;99.90
31369;DHT22;18004;48.416;10.066;2024-03-17T02:02:24;6.90;99.90
31369;DHT22;18004;48.416;10.066;2024-03-17T02:04:50;6.90;99.90
31369;DHT22;18004;48.416;10.066;2024-03-17T02:07:16;6.90;99.90
31369;DHT22;18004;48.416;10.066;2024-03-17T02:09:42;6.90;99.90
31369;DHT22;18004;48.416;10.066;2024-03-17T02:12:09;6.90;99.90
31369;DHT22;18004;48.416;10.066;2024-03-17T02:14:35;6.90;99.90
31369;DHT22;18004;48.416;10.066;2024-03-17T02:17:01;6.90;99.90
31369;DHT22;18004;48.416;10.066;2024-03-17T02:19:27;6.90;99.90
31369;DHT22;18004;48.416;10.066;2024-03-17T02:21:53;6.90;99.90
31369;DHT22;18004;48.416;10.066;2024-03-17T02:24:19;6.90;99.90
31369;DHT22;18004;48.416;10.066;2024-03-17T02:26:45;6.90;99.90
31369;DHT22;18004;48.416;10.066;2024-03-17T02:29:10;6.90;99.90
31369;DHT22;18004;48.416;10.066;2024-03-17T02:31:36;7.00;99.90
31369;DHT22;18004;48.416;10.066;2024-03-17T02:34:02;7.00;99.90
31369;DHT22;18004;48.416;10.066;2024-03-17T02:36:27;6.90;99.90
31369;DHT22;18004;48.416;10.066;2024-03-17T02:38:53;6.90;99.90
31369;DHT22;18004;48.416;10.066;2024-03-17T02:41:42;7.00;99.90
31369;DHT22;18004;48.416;10.066;2024-03-17T02:44:08;7.00;99.90
31369;DHT22;18004;48.416;10.066;2024-03-17T02:46:33;6.90;99.90
31369;DHT22;18004;48.416;10.066;2024-03-17T02:49:00;7.00;99.90
31369;DHT22;18004;48.416;10.066;2024-03-17T02:51:26;7.00;99.90
31369;DHT22;18004;48.416;10.066;2024-03-17T02:53:51;7.00;99.90
31369;DHT22;18004;48.416;10.066;2024-03-17T02:56:18;7.00;99.90
31369;DHT22;18004;48.416;10.066;2024-03-17T02:58:45;7.10;99.90
31369;DHT22;18004;48.416;10.066;2024-03-17T03:01:14;7.10;99.90
31369;DHT22;18004;48.416;10.066;2024-03-17T03:03:41;7.10;99.90
31369;DHT22;18004;48.416;10.066;2024-03-17T03:06:07;7.10;99.90
31369;DHT22;18004;48.416;10.066;2024-03-17T03:08:41;7.10;99.90
31369;DHT22;18004;48.416;10.066;2024-03-17T03:11:08;7.10;99.90
31369;DHT22;18004;48.416;10.066;2024-03-17T03:13:41;7.00;99.90
31369;DHT22;18004;48.416;10.066;2024-03-17T03:16:10;7.00;99.90
31369;DHT22;18004;48.416;10.066;2024-03-17T03:18:36;7.00;99.90
31369;DHT22;18004;48.416;10.066;2024-03-17T03:21:03;7.00;99.90
31369;DHT22;18004;48.416;10.066;2024-03-17T03:23:29;6.90;99.90
31369;DHT22;18004;48.416;10.066;2024-03-17T03:26:00;6.70;99.90
31369;DHT22;18004;48.416;10.066;2024-03-17T03:28:26;6.50;99.90
31369;DHT22;18004;48.416;10.066;2024-03-17T03:30:52;6.50;99.90
31369;DHT22;18004;48.416;10.066;2024-03-17T03:33:19;6.50;99.90
31369;DHT22;18004;48.416;10.066;2024-03-17T03:35:45;6.50;99.90
31369;DHT22;18004;48.416;10.066;2024-03-17T03:38:12;6.40;99.90
31369;DHT22;18004;48.416;10.066;2024-03-17T03:40:42;6.40;99.90
31369;DHT22;18004;48.416;10.066;2024-03-17T03:43:08;6.40;99.90
31369;DHT22;18004;48.416;10.066;2024-03-17T03:45:35;6.50;99.90
31369;DHT22;18004;48.416;10.066;2024-03-17T03:48:01;6.50;99.90
31369;DHT22;18004;48.416;10.066;2024-03-17T03:50:28;6.20;99.90
31369;DHT22;18004;48.416;10.066;2024-03-17T03:52:54;6.20;99.90
31369;DHT22;18004;48.416;10.066;2024-03-17T03:55:20;6.30;99.90
31369;DHT22;18004;48.416;10.066;2024-03-17T03:57:46;6.20;99.90
31369;DHT22;18004;48.416;10.066;2024-03-17T04:00:14;6.20;99.90
31369;DHT22;18004;48.416;10.066;2024-03-17T04:02:43;6.20;99.90
31369;DHT22;18004;48.416;10.066;2024-03-17T04:05:09;6.20;99.90
31369;DHT22;18004;48.416;10.066;2024-03-17T04:07:36;6.30;99.90
31369;DHT22;18004;48.416;10.066;2024-03-17T04:10:03;6.20;99.90
31369;DHT22;18004;48.416;10.066;2024-03-17T04:12:30;6.30;99.90
31369;DHT22;18004;48.416;10.066;2024-03-17T04:14:59;6.40;99.90
31369;DHT22;18004;48.416;10.066;2024-03-17T04:17:26;6.50;99.90
31369;DHT22;18004;48.416;10.066;2024-03-17T04:19:53;6.30;99.90
31369;DHT22;18004;48.416;10.066;2024-03-17T04:22:20;6.20;99.90
31369;DHT22;18004;48.416;10.066;2024-03-17T04:24:48;6.20;99.90
31369;DHT22;18004;48.416;10.066;2024-03-17T04:27:22;6.20;99.90
31369;DHT22;18004;48.416;10.066;2024-03-17T04:29:49;6.20;99.90
31369;DHT22;18004;48.416;10.066;2024-03-17T04:32:15;6.00;99.90
31369;DHT22;18004;48.416;10.066;2024-03-17T04:34:41;6.10;99.90
31369;DHT22;18004;48.416;10.066;2024-03-17T04:37:09;6.10;99.90
31369;DHT22;18004;48.416;10.066;2024-03-17T04:39:41;6.20;99.90
31369;DHT22;18004;48.416;10.066;2024-03-17T04:42:09;6.10;99.90
31369;DHT22;18004;48.416;10.066;2024-03-17T04:44:35;6.00;99.90
31369;DHT22;18004;48.416;10.066;2024-03-17T04:47:02;6.10;99.90
31369;DHT22;18004;48.416;10.066;2024-03-17T04:49:36;6.10;99.90
31369;DHT22;18004;48.416;10.066;2024-03-17T04:52:02;6.10;99.90
31369;DHT22;18004;48.416;10.066;2024-03-17T04:54:28;6.20;99.90
31369;DHT22;18004;48.416;10.066;2024-03-17T04:56:54;6.20;99.90
31369;DHT22;18004;48.416;10.066;2024-03-17T04:59:20;6.20;99.90
31369;DHT22;18004;48.416;10.066;2024-03-17T05:01:45;6.10;99.90
31369;DHT22;18004;48.416;10.066;2024-03-17T05:04:11;6.20;99.90
31369;DHT22;18004;48.416;10.066;2024-03-17T05:06:37;6.20;99.90
31369;DHT22;18004;48.416;10.066;2024-03-17T05:09:03;6.10;99.90
31369;DHT22;18004;48.416;10.066;2024-03-17T05:11:30;6.10;99.90
31369;DHT22;18004;48.416;10.066;2024-03-17T05:13:56;6.00;99.90
31369;DHT22;18004;48.416;10.066;2024-03-17T05:16:22;5.90;99.90
31369;DHT22;18004;48.416;10.066;2024-03-17T05:18:49;5.90;99.90
31369;DHT22;18004;48.416;10.066;2024-03-17T05:21:15;5.90;99.90
31369;DHT22;18004;48.416;10.066;2024-03-17T05:23:41;5.90;99.90
31369;DHT22;18004;48.416;10.066;2024-03-17T05:26:06;5.90;99.90
31369;DHT22;18004;48.416;10.066;2024-03-17T05:28:32;6.00;99.90
31369;DHT22;18004;48.416;10.066;2024-03-17T05:30:58;6.00;99.90
31369;DHT22;18004;48.416;10.066;2024-03-17T05:33:25;6.10;99.90
31369;DHT22;18004;48.416;10.066;2024-03-17T05:35:59;6.20;99.90
31369;DHT22;18004;48.416;10.066;2024-03-17T05:38:29;6.10;99.90
31369;DHT22;18004;48.416;10.066;2024-03-17T05:41:03;6.10;99.90
31369;DHT22;18004;48.416;10.066;2024-03-17T05:43:31;6.00;99.90
31369;DHT22;18004;48.416;10.066;2024-03-17T05:46:05;6.00;99.90
31369;DHT22;18004;48.416;10.066;2024-03-17T05:48:35;6.00;99.90
31369;DHT22;18004;48.416;10.066;2024-03-17T05:51:04;6.10;99.90
31369;DHT22;18004;48.416;10.066;2024-03-17T05:53:30;6.10;99.90
31369;DHT22;18004;48.416;10.066;2024-03-17T05:56:01;6.20;99.90
31369;DHT22;18004;48.416;10.066;2024-03-17T05:58:27;6.20;99.90
31369;DHT22;18004;48.416;10.066;2024-03-17T06:00:53;6.20;99.90
31369;DHT22;18004;48.416;10.066;2024-03-17T06:03:19;6.20;99.90
31369;DHT22;18004;48.416;10.066;2024-03-17T06:05:45;6.20;99.90
31369;DHT22;18004;48.416;10.066;2024-03-17T06:08:14;6.20;99.90
31369;DHT22;18004;48.416;10.066;2024-03-17T06:10:44;6.20;99.90
31369;DHT22;18004;48.416;10.066;2024-03-17T06:13:11;6.20;99.90
31369;DHT22;18004;48.416;10.066;2024-03-17T06:15:41;6.20;99.90
31369;DHT22;18004;48.416;10.066;2024-03-17T06:18:07;6.30;99.90
31369;DHT22;18004;48.416;10.066;2024-03-17T06:20:34;6.10;99.90
31369;DHT22;18004;48.416;10.066;2024-03-17T06:23:00;6.10;99.90
31369;DHT22;18004;48.416;10.066;2024-03-17T06:25:26;6.10;99.90
31369;DHT22;18004;48.416;10.066;2024-03-17T06:27:53;6.20;99.90
31369;DHT22;18004;48.416;10.066;2024-03-17T06:30:20;6.30;99.90
31369;DHT22;18004;48.416;10.066;2024-03-17T06:32:47;6.30;99.90
31369;DHT22;18004;48.416;10.066;2024-03-17T06:35:16;6.40;99.90
31369;DHT22;18004;48.416;10.066;2024-03-17T06:37:44;6.50;99.90
31369;DHT22;18004;48.416;10.066;2024-03-17T06:40:14;6.50;99.90
31369;DHT22;18004;48.416;10.066;2024-03-17T06:42:40;6.60;99.90
31369;DHT22;18004;48.416;10.066;2024-03-17T06:45:06;6.60;99.90
31369;DHT22;18004;48.416;10.066;2024-03-17T06:47:36;6.70;99.90
31369;DHT22;18004;48.416;10.066;2024-03-17T06:50:05;6.70;99.90
31369;DHT22;18004;48.416;10.066;2024-03-17T06:52:32;6.80;99.90
31369;DHT22;18004;48.416;10.066;2024-03-17T06:54:58;6.80;99.90
31369;DHT22;18004;48.416;10.066;2024-03-17T06:57:24;6.80;99.90
31369;DHT22;18004;48.416;10.066;2024-03-17T06:59:50;6.80;99.90
31369;DHT22;18004;48.416;10.066;2024-03-17T07:02:16;6.70;99.90
31369;DHT22;18004;48.416;10.066;2024-03-17T07:04:44;6.80;99.90
31369;DHT22;18004;48.416;10.066;2024-03-17T07:07:10;6.80;99.90
31369;DHT22;18004;48.416;10.066;2024-03-17T07:09:37;6.90;99.90
31369;DHT22;18004;48.416;10.066;2024-03-17T07:12:05;6.90;99.90
31369;DHT22;18004;48.416;10.066;2024-03-17T07:14:32;7.00;99.90
31369;DHT22;18004;48.416;10.066;2024-03-17T07:16:58;7.00;99.90
31369;DHT22;18004;48.416;10.066;2024-03-17T07:19:23;7.00;99.90
31369;DHT22;18004;48.416;10.066;2024-03-17T07:21:49;7.10;99.90
31369;DHT22;18004;48.416;10.066;2024-03-17T07:24:15;7.10;99.90
31369;DHT22;18004;48.416;10.066;2024-03-17T07:26:41;7.20;99.90
31369;DHT22;18004;48.416;10.066;2024-03-17T07:29:07;7.30;99.90
31369;DHT22;18004;48.416;10.066;2024-03-17T07:31:34;7.30;99.90
31369;DHT22;18004;48.416;10.066;2024-03-17T07:34:00;7.40;99.90
31369;DHT22;18004;48.416;10.066;2024-03-17T07:36:25;7.50;99.90
31369;DHT22;18004;48.416;10.066;2024-03-17T07:38:51;7.50;99.90
31369;DHT22;18004;48.416;10.066;2024-03-17T07:41:18;7.30;99.90
31369;DHT22;18004;48.416;10.066;2024-03-17T07:43:45;7.30;99.90
31369;DHT22;18004;48.416;10.066;2024-03-17T07:46:12;7.40;99.90
31369;DHT22;18004;48.416;10.066;2024-03-17T07:48:39;7.40;99.90
31369;DHT22;18004;48.416;10.066;2024-03-17T07:51:10;7.50;99.90
31369;DHT22;18004;48.416;10.066;2024-03-17T07:53:37;7.50;99.90
31369;DHT22;18004;48.416;10.066;2024-03-17T07:56:05;7.60;99.90
31369;DHT22;18004;48.416;10.066;2024-03-17T07:58:33;7.60;99.90
31369;DHT22;18004;48.416;10.066;2024-03-17T08:01:00;7.70;99.90
31369;DHT22;18004;48.416;10.066;2024-03-17T08:03:27;7.80;99.90
31369;DHT22;18004;48.416;10.066;2024-03-17T08:05:53;7.90;99.90
31369;DHT22;18004;48.416;10.066;2024-03-17T08:08:19;8.00;99.90
31369;DHT22;18004;48.416;10.066;2024-03-17T08:10:45;8.20;99.90
31369;DHT22;18004;48.416;10.066;2024-03-17T08:13:14;8.30;99.90
31369;DHT22;18004;48.416;10.066;2024-03-17T08:15:42;8.40;99.90
31369;DHT22;18004;48.416;10.066;2024-03-17T08:18:09;8.30;99.90
31369;DHT22;18004;48.416;10.066;2024-03-17T08:20:42;8.50;99.90
31369;DHT22;18004;48.416;10.066;2024-03-17T08:23:09;8.60;99.90
31369;DHT22;18004;48.416;10.066;2024-03-17T08:25:36;8.80;99.90
31369;DHT22;18004;48.416;10.066;2024-03-17T08:28:02;8.90;99.90
31369;DHT22;18004;48.416;10.066;2024-03-17T08:30:29;9.10;99.90
31369;DHT22;18004;48.416;10.066;2024-03-17T08:32:56;9.20;99.90
31369;DHT22;18004;48.416;10.066;2024-03-17T08:35:22;9.20;99.90
31369;DHT22;18004;48.416;10.066;2024-03-17T08:37:48;9.20;99.90
31369;DHT22;18004;48.416;10.066;2024-03-17T08:40:14;9.20;99.90
31369;DHT22;18004;48.416;10.066;2024-03-17T08:42:40;9.40;99.90
31369;DHT22;18004;48.416;10.066;2024-03-17T08:45:06;9.40;99.90
31369;DHT22;18004;48.416;10.066;2024-03-17T08:47:32;9.50;99.90
31369;DHT22;18004;48.416;10.066;2024-03-17T08:49:58;9.60;99.90
31369;DHT22;18004;48.416;10.066;2024-03-17T08:52:29;9.70;99.90
31369;DHT22;18004;48.416;10.066;2024-03-17T08:54:57;9.60;99.90
31369;DHT22;18004;48.416;10.066;2024-03-17T08:57:24;9.70;99.90
31369;DHT22;18004;48.416;10.066;2024-03-17T08:59:50;9.90;99.90
31369;DHT22;18004;48.416;10.066;2024-03-17T09:02:18;10.00;99.90
31369;DHT22;18004;48.416;10.066;2024-03-17T09:04:45;10.10;99.90
31369;DHT22;18004;48.416;10.066;2024-03-17T09:07:11;9.90;99.90
31369;DHT22;18004;48.416;10.066;2024-03-17T09:09:36;10.10;99.90
31369;DHT22;18004;48.416;10.066;2024-03-17T09:12:02;10.30;99.90
31369;DHT22;18004;48.416;10.066;2024-03-17T09:14:29;10.40;99.90
31369;DHT22;18004;48.416;10.066;2024-03-17T09:16:55;10.40;99.90
31369;DHT22;18004;48.416;10.066;2024-03-17T09:19:23;10.50;99.90
31369;DHT22;18004;48.416;10.066;2024-03-17T09:21:49;10.50;99.90
31369;DHT22;18004;48.416;10.066;2024-03-17T09:24:15;10.60;99.90
31369;DHT22;18004;48.416;10.066;2024-03-17T09:26:40;10.70;99.90
31369;DHT22;18004;48.416;10.066;2024-03-17T09:29:06;10.80;99.90
31369;DHT22;18004;48.416;10.066;2024-03-17T09:31:32;11.00;99.90
31369;DHT22;18004;48.416;10.066;2024-03-17T09:34:01;11.10;99.90
31369;DHT22;18004;48.416;10.066;2024-03-17T09:36:27;11.30;99.90
31369;DHT22;18004;48.416;10.066;2024-03-17T09:38:53;11.40;99.90
31369;DHT22;18004;48.416;10.066;2024-03-17T09:41:24;11.10;99.90
31369;DHT22;18004;48.416;10.066;2024-03-17T09:43:55;11.40;99.90
31369;DHT22;18004;48.416;10.066;2024-03-17T09:46:25;11.50;99.90
31369;DHT22;18004;48.416;10.066;2024-03-17T09:48:53;11.60;99.90
31369;DHT22;18004;48.416;10.066;2024-03-17T09:51:24;11.50;99.90
31369;DHT22;18004;48.416;10.066;2024-03-17T09:53:51;11.70;99.90
31369;DHT22;18004;48.416;10.066;2024-03-17T09:56:18;11.80;99.90
31369;DHT22;18004;48.416;10.066;2024-03-17T09:58:51;11.90;99.90
31369;DHT22;18004;48.416;10.066;2024-03-17T10:01:18;11.80;99.90
31369;DHT22;18004;48.416;10.066;2024-03-17T10:03:47;11.70;99.90
31369;DHT22;18004;48.416;10.066;2024-03-17T10:06:46;11.80;99.90
31369;DHT22;18004;48.416;10.066;2024-03-17T10:09:16;11.80;99.90
31369;DHT22;18004;48.416;10.066;2024-03-17T10:11:48;11.90;99.90
31369;DHT22;18004;48.416;10.066;2024-03-17T10:14:17;11.80;99.90
31369;DHT22;18004;48.416;10.066;2024-03-17T10:16:43;12.00;99.90
31369;DHT22;18004;48.416;10.066;2024-03-17T10:19:14;12.10;99.90
31369;DHT22;18004;48.416;10.066;2024-03-17T10:21:45;12.10;99.90
31369;DHT22;18004;48.416;10.066;2024-03-17T10:24:20;12.20;99.90
31369;DHT22;18004;48.416;10.066;2024-03-17T10:26:48;11.90;99.90
31369;DHT22;18004;48.416;10.066;2024-03-17T10:29:32;12.00;99.90
31369;DHT22;18004;48.416;10.066;2024-03-17T10:32:18;11.80;99.90
31369;DHT22;18004;48.416;10.066;2024-03-17T10:34:45;11.90;99.90
31369;DHT22;18004;48.416;10.066;2024-03-17T10:37:14;11.90;99.90
31369;DHT22;18004;48.416;10.066;2024-03-17T10:39:44;12.00;99.90
31369;DHT22;18004;48.416;10.066;2024-03-17T10:42:11;12.10;99.90
31369;DHT22;18004;48.416;10.066;2024-03-17T10:44:41;12.10;99.90
31369;DHT22;18004;48.416;10.066;2024-03-17T10:47:20;12.10;99.90
31369;DHT22;18004;48.416;10.066;2024-03-17T10:49:46;11.90;99.90
31369;DHT22;18004;48.416;10.066;2024-03-17T10:52:18;11.80;99.90
31369;DHT22;18004;48.416;10.066;2024-03-17T10:54:50;11.80;99.90
31369;DHT22;18004;48.416;10.066;2024-03-17T11:00:04;12.00;99.90
31369;DHT22;18004;48.416;10.066;2024-03-17T11:02:31;12.20;99.90
31369;DHT22;18004;48.416;10.066;2024-03-17T11:05:00;12.30;99.90
31369;DHT22;18004;48.416;10.066;2024-03-17T11:07:27;12.50;99.90
31369;DHT22;18004;48.416;10.066;2024-03-17T11:09:55;12.50;99.90
31369;DHT22;18004;48.416;10.066;2024-03-17T11:12:58;12.60;99.90
31369;DHT22;18004;48.416;10.066;2024-03-17T11:18:27;12.70;99.90
31369;DHT22;18004;48.416;10.066;2024-03-17T11:21:19;12.70;99.90
31369;DHT22;18004;48.416;10.066;2024-03-17T11:23:59;12.70;99.90
31369;DHT22;18004;48.416;10.066;2024-03-17T11:26:30;12.90;99.90
31369;DHT22;18004;48.416;10.066;2024-03-17T11:28:57;13.00;99.90
31369;DHT22;18004;48.416;10.066;2024-03-17T11:31:37;13.00;99.90
31369;DHT22;18004;48.416;10.066;2024-03-17T11:37:03;13.20;99.90
31369;DHT22;18004;48.416;10.066;2024-03-17T11:39:51;13.20;99.90
31369;DHT22;18004;48.416;10.066;2024-03-17T11:42:22;13.40;99.90
31369;DHT22;18004;48.416;10.066;2024-03-17T11:45:05;13.50;92.80
31369;DHT22;18004;48.416;10.066;2024-03-17T11:47:37;13.50;90.30
31369;DHT22;18004;48.416;10.066;2024-03-17T11:50:05;13.50;87.50
31369;DHT22;18004;48.416;10.066;2024-03-17T11:52:31;13.50;84.10
31369;DHT22;18004;48.416;10.066;2024-03-17T11:54:57;13.40;82.90
31369;DHT22;18004;48.416;10.066;2024-03-17T11:57:24;13.40;90.70
31369;DHT22;18004;48.416;10.066;2024-03-17T11:59:51;13.30;73.30
31369;DHT22;18004;48.416;10.066;2024-03-17T12:02:26;13.40;78.10
31369;DHT22;18004;48.416;10.066;2024-03-17T12:04:58;13.50;82.20
31369;DHT22;18004;48.416;10.066;2024-03-17T12:07:24;13.60;82.90
31369;DHT22;18004;48.416;10.066;2024-03-17T12:09:51;13.60;77.80
31369;DHT22;18004;48.416;10.066;2024-03-17T12:12:26;13.70;83.90
31369;DHT22;18004;48.416;10.066;2024-03-17T12:15:02;13.80;77.10
31369;DHT22;18004;48.416;10.066;2024-03-17T12:17:28;13.90;85.00
31369;DHT22;18004;48.416;10.066;2024-03-17T12:19:55;14.00;79.10
31369;DHT22;18004;48.416;10.066;2024-03-17T12:22:23;14.10;66.60
31369;DHT22;18004;48.416;10.066;2024-03-17T12:24:54;14.20;60.40
31369;DHT22;18004;48.416;10.066;2024-03-17T12:29:51;13.90;56.00
31369;DHT22;18004;48.416;10.066;2024-03-17T12:32:18;13.90;61.40
31369;DHT22;18004;48.416;10.066;2024-03-17T12:34:45;13.90;67.60
31369;DHT22;18004;48.416;10.066;2024-03-17T12:37:22;13.90;66.30
31369;DHT22;18004;48.416;10.066;2024-03-17T12:39:48;14.00;67.20
31369;DHT22;18004;48.416;10.066;2024-03-17T12:47:19;13.90;77.20
31369;DHT22;18004;48.416;10.066;2024-03-17T12:49:50;13.90;74.50
31369;DHT22;18004;48.416;10.066;2024-03-17T12:52:23;13.80;73.00
31369;DHT22;18004;48.416;10.066;2024-03-17T12:55:02;13.90;76.20
31369;DHT22;18004;48.416;10.066;2024-03-17T12:57:47;13.90;80.10
31369;DHT22;18004;48.416;10.066;2024-03-17T13:00:32;14.00;75.40
31369;DHT22;18004;48.416;10.066;2024-03-17T13:03:07;14.00;69.80
31369;DHT22;18004;48.416;10.066;2024-03-17T13:05:34;13.90;73.10
31369;DHT22;18004;48.416;10.066;2024-03-17T13:08:00;13.90;76.40
31369;DHT22;18004;48.416;10.066;2024-03-17T13:10:28;14.00;73.70
31369;DHT22;18004;48.416;10.066;2024-03-17T13:13:02;14.20;68.50
31369;DHT22;18004;48.416;10.066;2024-03-17T13:15:29;14.30;61.00
31369;DHT22;18004;48.416;10.066;2024-03-17T13:17:59;14.40;66.30
31369;DHT22;18004;48.416;10.066;2024-03-17T13:20:25;14.40;57.20
31369;DHT22;18004;48.416;10.066;2024-03-17T13:22:51;14.40;55.00
31369;DHT22;18004;48.416;10.066;2024-03-17T13:25:19;14.50;58.60
31369;DHT22;18004;48.416;10.066;2024-03-17T13:27:47;14.60;48.40
31369;DHT22;18004;48.416;10.066;2024-03-17T13:30:18;14.50;43.50
31369;DHT22;18004;48.416;10.066;2024-03-17T13:32:44;14.50;47.90
31369;DHT22;18004;48.416;10.066;2024-03-17T13:35:18;14.50;47.20
31369;DHT22;18004;48.416;10.066;2024-03-17T13:37:48;14.40;50.20
31369;DHT22;18004;48.416;10.066;2024-03-17T13:40:15;14.40;51.80
31369;DHT22;18004;48.416;10.066;2024-03-17T13:42:44;14.40;49.40
31369;DHT22;18004;48.416;10.066;2024-03-17T13:45:13;14.40;52.60
31369;DHT22;18004;48.416;10.066;2024-03-17T13:47:40;14.30;53.50
31369;DHT22;18004;48.416;10.066;2024-03-17T13:50:07;14.40;54.80
31369;DHT22;18004;48.416;10.066;2024-03-17T13:52:37;14.50;51.10
31369;DHT22;18004;48.416;10.066;2024-03-17T13:55:04;14.50;57.10
31369;DHT22;18004;48.416;10.066;2024-03-17T13:57:35;14.40;59.10
31369;DHT22;18004;48.416;10.066;2024-03-17T14:00:00;14.40;50.50
31369;DHT22;18004;48.416;10.066;2024-03-17T14:02:26;14.40;51.40
31369;DHT22;18004;48.416;10.066;2024-03-17T14:04:52;14.30;55.70
31369;DHT22;18004;48.416;10.066;2024-03-17T14:07:18;14.30;57.80
31369;DHT22;18004;48.416;10.066;2024-03-17T14:09:43;14.30;55.20
31369;DHT22;18004;48.416;10.066;2024-03-17T14:12:09;14.40;55.50
31369;DHT22;18004;48.416;10.066;2024-03-17T14:14:35;14.40;56.90
31369;DHT22;18004;48.416;10.066;2024-03-17T14:17:01;14.30;57.60
31369;DHT22;18004;48.416;10.066;2024-03-17T14:19:26;14.20;57.00
31369;DHT22;18004;48.416;10.066;2024-03-17T14:21:52;14.20;55.40
31369;DHT22;18004;48.416;10.066;2024-03-17T14:24:18;14.30;58.20
31369;DHT22;18004;48.416;10.066;2024-03-17T14:26:44;14.20;58.70
31369;DHT22;18004;48.416;10.066;2024-03-17T14:29:10;14.20;60.40
31369;DHT22;18004;48.416;10.066;2024-03-17T14:31:35;14.20;60.50
31369;DHT22;18004;48.416;10.066;2024-03-17T14:34:06;14.20;55.90
31369;DHT22;18004;48.416;10.066;2024-03-17T14:36:32;14.30;58.20
31369;DHT22;18004;48.416;10.066;2024-03-17T14:39:01;14.30;60.10
31369;DHT22;18004;48.416;10.066;2024-03-17T14:41:28;14.30;60.50
31369;DHT22;18004;48.416;10.066;2024-03-17T14:43:55;14.20;59.10
31369;DHT22;18004;48.416;10.066;2024-03-17T14:46:23;14.30;59.30
31369;DHT22;18004;48.416;10.066;2024-03-17T14:48:49;14.30;60.50
31369;DHT22;18004;48.416;10.066;2024-03-17T14:51:17;14.30;60.50
31369;DHT22;18004;48.416;10.066;2024-03-17T14:53:43;14.30;60.50
31369;DHT22;18004;48.416;10.066;2024-03-17T14:56:15;14.10;57.50
31369;DHT22;18004;48.416;10.066;2024-03-17T14:58:42;14.10;59.90
31369;DHT22;18004;48.416;10.066;2024-03-17T15:01:07;14.10;56.00
31369;DHT22;18004;48.416;10.066;2024-03-17T15:03:35;14.10;58.50
31369;DHT22;18004;48.416;10.066;2024-03-17T15:06:01;14.10;55.50
31369;DHT22;18004;48.416;10.066;2024-03-17T15:08:29;14.10;57.40
31369;DHT22;18004;48.416;10.066;2024-03-17T15:10:59;14.00;63.30
31369;DHT22;18004;48.416;10.066;2024-03-17T15:13:25;14.20;61.40
31369;DHT22;18004;48.416;10.066;2024-03-17T15:15:51;14.20;56.30
31369;DHT22;18004;48.416;10.066;2024-03-17T15:18:20;14.30;60.50
31369;DHT22;18004;48.416;10.066;2024-03-17T15:20:53;14.30;56.00
31369;DHT22;18004;48.416;10.066;2024-03-17T15:23:21;14.40;59.30
31369;DHT22;18004;48.416;10.066;2024-03-17T15:25:47;14.50;57.50
31369;DHT22;18004;48.416;10.066;2024-03-17T15:28:13;14.60;60.20
31369;DHT22;18004;48.416;10.066;2024-03-17T15:30:38;14.60;50.20
31369;DHT22;18004;48.416;10.066;2024-03-17T15:33:04;14.60;54.90
31369;DHT22;18004;48.416;10.066;2024-03-17T15:35:30;14.50;51.10
31369;DHT22;18004;48.416;10.066;2024-03-17T15:37:58;14.50;52.30
31369;DHT22;18004;48.416;10.066;2024-03-17T15:40:24;14.40;52.60
31369;DHT22;18004;48.416;10.066;2024-03-17T15:42:50;14.40;53.10
31369;DHT22;18004;48.416;10.066;2024-03-17T15:45:17;14.30;53.40
31369;DHT22;18004;48.416;10.066;2024-03-17T15:47:46;14.30;60.50